createdAt,value
2023-04-04T00:01:32.784Z,78.57
2023-04-04T00:03:34.387Z,79.02
2023-04-04T00:05:36.355Z,78.44
2023-04-04T00:07:37.909Z,79.03
2023-04-04T00:09:39.383Z,79.13
2023-04-04T00:11:41.810Z,78.85
2023-04-04T00:13:43.415Z,78.33
2023-04-04T00:15:44.903Z,78.25
2023-04-04T00:17:46.606Z,78.30
2023-04-04T00:19:48.089Z,78.21
2023-04-04T00:21:50.360Z,78.59
2023-04-04T00:23:54.532Z,78.73
2023-04-04T00:25:56.002Z,78.07
2023-04-04T00:28:00.752Z,78.23
2023-04-04T00:30:02.707Z,78.86
2023-04-04T00:32:04.274Z,78.53
2023-04-04T00:34:05.735Z,78.47
2023-04-04T00:36:07.842Z,78.42
2023-04-04T00:38:09.346Z,78.90
2023-04-04T00:40:11.018Z,78.61
2023-04-04T00:42:12.808Z,78.77
2023-04-04T00:44:14.379Z,79.10
2023-04-04T00:46:17.608Z,79.06
2023-04-04T00:48:20.783Z,78.83
2023-04-04T00:50:22.269Z,78.73
2023-04-04T00:52:24.018Z,79.03
2023-04-04T00:54:25.567Z,78.45
2023-04-04T00:56:27.151Z,78.54
2023-04-04T00:58:29.915Z,78.59
2023-04-04T01:00:34.771Z,78.46
2023-04-04T01:02:36.879Z,78.95
2023-04-04T01:04:38.883Z,78.92
2023-04-04T01:06:40.596Z,79.00
2023-04-04T01:08:43.547Z,78.59
2023-04-04T01:10:45.077Z,79.31
2023-04-04T01:12:47.557Z,79.12
2023-04-04T01:14:49.035Z,79.05
2023-04-04T01:16:51.574Z,78.90
2023-04-04T01:18:54.876Z,79.20
2023-04-04T01:21:09.993Z,79.27
2023-04-04T01:23:12.777Z,79.05
2023-04-04T01:25:14.859Z,79.11
2023-04-04T01:27:16.295Z,79.41
2023-04-04T01:29:17.898Z,79.55
2023-04-04T01:31:28.180Z,79.30
2023-04-04T01:33:34.628Z,78.83
2023-04-04T01:35:47.377Z,78.87
2023-04-04T01:37:52.682Z,79.02
2023-04-04T01:39:59.303Z,78.72
2023-04-04T01:42:03.126Z,78.35
2023-04-04T01:44:04.817Z,78.51
2023-04-04T01:46:06.808Z,78.69
2023-04-04T01:48:09.115Z,78.31
2023-04-04T01:50:11.817Z,78.12
2023-04-04T01:52:13.630Z,78.52
2023-04-04T01:54:15.470Z,78.43
2023-04-04T01:56:16.985Z,78.31
2023-04-04T01:58:18.437Z,78.51
2023-04-04T02:00:19.931Z,77.93
2023-04-04T02:02:21.567Z,77.67
2023-04-04T02:04:23.259Z,77.60
2023-04-04T02:06:24.806Z,77.74
2023-04-04T02:08:26.274Z,78.16
2023-04-04T02:10:27.745Z,77.86
2023-04-04T02:12:29.252Z,77.83
2023-04-04T02:14:30.715Z,77.28
2023-04-04T02:16:32.193Z,78.04
2023-04-04T02:18:34.401Z,77.78
2023-04-04T02:20:35.882Z,77.51
2023-04-04T02:22:37.355Z,77.21
2023-04-04T02:24:38.814Z,77.62
2023-04-04T02:26:40.592Z,77.55
2023-04-04T02:28:42.308Z,77.59
2023-04-04T02:30:43.856Z,77.44
2023-04-04T02:32:45.312Z,77.04
2023-04-04T02:34:46.889Z,77.57
2023-04-04T02:36:48.458Z,77.29
2023-04-04T02:38:49.947Z,77.34
2023-04-04T02:40:51.701Z,77.25
2023-04-04T02:42:53.161Z,77.39
2023-04-04T02:44:54.911Z,77.05
2023-04-04T02:46:57.706Z,77.06
2023-04-04T02:48:59.194Z,76.92
2023-04-04T02:51:00.730Z,77.43
2023-04-04T02:53:03.198Z,77.22
2023-04-04T02:55:05.621Z,77.18
2023-04-04T02:57:07.424Z,77.33
2023-04-04T02:59:09.012Z,77.60
2023-04-04T03:01:10.690Z,77.14
2023-04-04T03:03:12.393Z,77.32
2023-04-04T03:05:13.986Z,77.21
2023-04-04T03:07:15.587Z,77.37
2023-04-04T03:09:17.294Z,77.55
2023-04-04T03:11:21.287Z,77.12
2023-04-04T03:13:23.015Z,77.37
2023-04-04T03:15:25.872Z,77.33
2023-04-04T03:17:27.527Z,77.31
2023-04-04T03:19:29.402Z,77.36
2023-04-04T03:21:31.272Z,77.21
2023-04-04T03:23:32.758Z,77.51
2023-04-04T03:25:34.210Z,77.65
2023-04-04T03:27:35.960Z,77.53
2023-04-04T03:29:37.630Z,77.28
2023-04-04T03:31:39.258Z,77.44
2023-04-04T03:33:42.611Z,77.65
2023-04-04T03:35:44.331Z,77.42
2023-04-04T03:37:46.048Z,77.23
2023-04-04T03:39:47.840Z,77.20
2023-04-04T03:41:49.381Z,77.30
2023-04-04T03:43:50.907Z,77.15
2023-04-04T03:45:52.389Z,77.00
2023-04-04T03:47:54.216Z,77.19
2023-04-04T03:49:56.118Z,76.87
2023-04-04T03:51:58.140Z,76.85
2023-04-04T03:53:59.660Z,76.98
2023-04-04T03:56:01.451Z,77.11
2023-04-04T03:58:02.988Z,77.19
2023-04-04T04:00:04.912Z,77.31
2023-04-04T04:02:06.907Z,77.04
2023-04-04T04:04:08.485Z,77.07
2023-04-04T04:06:09.959Z,77.12
2023-04-04T04:08:11.712Z,77.03
2023-04-04T04:10:14.333Z,77.18
2023-04-04T04:12:15.854Z,76.98
2023-04-04T04:14:17.955Z,77.02
2023-04-04T04:16:19.604Z,76.90
2023-04-04T04:18:21.306Z,76.95
2023-04-04T04:20:23.154Z,76.89
2023-04-04T04:22:24.655Z,76.87
2023-04-04T04:24:26.156Z,76.83
2023-04-04T04:26:27.701Z,76.66
2023-04-04T04:28:34.101Z,76.59
2023-04-04T04:30:36.115Z,76.58
2023-04-04T04:32:37.725Z,76.22
2023-04-04T04:34:39.196Z,76.31
2023-04-04T04:36:41.030Z,76.52
2023-04-04T04:38:42.856Z,76.17
2023-04-04T04:40:44.326Z,76.24
2023-04-04T04:42:46.441Z,76.28
2023-04-04T04:44:47.978Z,76.27
2023-04-04T04:46:49.469Z,76.26
2023-04-04T04:48:51.087Z,76.18
2023-04-04T04:50:52.599Z,76.10
2023-04-04T04:52:54.106Z,75.96
2023-04-04T04:54:55.981Z,75.88
2023-04-04T04:56:57.664Z,76.12
2023-04-04T04:58:59.254Z,76.13
2023-04-04T05:01:01.111Z,76.01
2023-04-04T05:03:02.707Z,75.97
2023-04-04T05:05:04.938Z,76.26
2023-04-04T05:07:08.290Z,75.96
2023-04-04T05:09:09.790Z,75.76
2023-04-04T05:11:11.255Z,75.62
2023-04-04T05:13:14.014Z,75.77
2023-04-04T05:15:15.630Z,75.91
2023-04-04T05:17:17.141Z,75.84
2023-04-04T05:19:18.660Z,75.75
2023-04-04T05:21:20.234Z,75.96
2023-04-04T05:23:22.276Z,75.91
2023-04-04T05:25:23.805Z,75.69
2023-04-04T05:27:25.887Z,75.67
2023-04-04T05:29:28.018Z,75.55
2023-04-04T05:31:29.564Z,75.51
2023-04-04T05:33:31.162Z,75.66
2023-04-04T05:35:32.707Z,75.70
2023-04-04T05:37:34.881Z,75.37
2023-04-04T05:39:37.784Z,75.34
2023-04-04T05:41:39.437Z,75.53
2023-04-04T05:43:40.920Z,75.36
2023-04-04T05:45:42.639Z,75.25
2023-04-04T05:47:44.822Z,75.39
2023-04-04T05:49:46.379Z,75.17
2023-04-04T05:51:47.858Z,75.21
2023-04-04T05:53:49.361Z,75.52
2023-04-04T05:55:53.876Z,75.41
2023-04-04T05:57:56.773Z,75.91
2023-04-04T05:59:58.707Z,76.01
2023-04-04T06:02:00.220Z,76.09
2023-04-04T06:04:01.711Z,75.67
2023-04-04T06:06:04.664Z,75.50
2023-04-04T06:08:06.492Z,74.66
2023-04-04T06:10:08.889Z,74.82
2023-04-04T06:12:10.525Z,74.44
2023-04-04T06:14:13.933Z,74.05
2023-04-04T06:16:17.029Z,73.96
2023-04-04T06:18:18.743Z,74.38
2023-04-04T06:20:22.618Z,74.23
2023-04-04T06:22:24.156Z,73.50
2023-04-04T06:24:25.658Z,72.53
2023-04-04T06:26:27.187Z,72.11
2023-04-04T06:28:28.818Z,72.25
2023-04-04T06:30:30.648Z,72.34
2023-04-04T06:32:32.361Z,72.41
2023-04-04T06:34:33.843Z,71.95
2023-04-04T06:36:35.346Z,71.55
2023-04-04T06:38:37.000Z,72.12
2023-04-04T06:40:39.110Z,71.60
2023-04-04T06:42:49.425Z,71.38
2023-04-04T06:44:51.046Z,71.30
2023-04-04T06:46:52.950Z,70.87
2023-04-04T06:48:54.950Z,71.06
2023-04-04T06:50:56.578Z,71.28
2023-04-04T06:52:58.192Z,71.14
2023-04-04T06:54:59.657Z,71.31
2023-04-04T06:57:01.318Z,71.44
2023-04-04T06:59:03.474Z,71.13
2023-04-04T07:01:05.102Z,70.88
2023-04-04T07:03:06.622Z,70.76
2023-04-04T07:05:08.573Z,71.34
2023-04-04T07:07:10.037Z,70.03
2023-04-04T07:09:21.925Z,69.60
2023-04-04T07:11:29.078Z,69.14
2023-04-04T07:13:30.569Z,68.72
2023-04-04T07:15:32.085Z,68.88
2023-04-04T07:17:37.874Z,69.67
2023-04-04T07:19:39.460Z,69.68
2023-04-04T07:21:40.917Z,69.06
2023-04-04T07:23:42.433Z,68.92
2023-04-04T07:25:44.517Z,69.42
2023-04-04T07:27:46.284Z,68.72
2023-04-04T07:29:47.748Z,67.95
2023-04-04T07:31:49.290Z,67.63
2023-04-04T07:33:53.954Z,68.16
2023-04-04T07:35:55.428Z,67.60
2023-04-04T07:37:57.983Z,67.84
2023-04-04T07:39:59.672Z,67.85
2023-04-04T07:42:01.397Z,68.18
2023-04-04T07:44:02.911Z,66.90
2023-04-04T07:46:04.511Z,67.08
2023-04-04T07:48:06.353Z,68.01
2023-04-04T07:50:08.178Z,67.98
2023-04-04T07:52:09.893Z,68.05
2023-04-04T07:54:11.382Z,67.96
2023-04-04T07:56:12.832Z,67.78
2023-04-04T07:58:14.427Z,68.02
2023-04-04T08:00:17.634Z,67.70
2023-04-04T08:02:19.133Z,67.71
2023-04-04T08:04:20.755Z,67.57
2023-04-04T08:06:22.572Z,66.75
2023-04-04T08:08:24.167Z,66.45
2023-04-04T08:10:25.721Z,66.29
2023-04-04T08:12:27.817Z,66.74
2023-04-04T08:14:29.463Z,66.40
2023-04-04T08:16:31.223Z,66.47
2023-04-04T08:18:33.564Z,65.93
2023-04-04T08:20:35.748Z,65.45
2023-04-04T08:22:37.212Z,66.07
2023-04-04T08:24:38.670Z,66.51
2023-04-04T08:26:40.158Z,66.17
2023-04-04T08:28:41.694Z,65.55
2023-04-04T08:30:43.243Z,65.79
2023-04-04T08:32:45.930Z,66.35
2023-04-04T08:34:48.086Z,66.78
2023-04-04T08:36:49.541Z,66.05
2023-04-04T08:38:51.305Z,64.96
2023-04-04T08:40:53.560Z,64.68
2023-04-04T08:42:55.570Z,63.98
2023-04-04T08:44:59.467Z,64.24
2023-04-04T08:47:05.294Z,64.57
2023-04-04T08:49:07.242Z,63.57
2023-04-04T08:51:12.202Z,64.75
2023-04-04T08:53:14.417Z,64.66
2023-04-04T08:55:16.692Z,65.12
2023-04-04T08:57:18.190Z,65.50
2023-04-04T08:59:20.913Z,66.52
2023-04-04T09:01:22.917Z,65.07
2023-04-04T09:03:27.314Z,63.43
2023-04-04T09:05:29.350Z,63.48
2023-04-04T09:07:32.046Z,63.52
2023-04-04T09:09:34.330Z,62.69
2023-04-04T09:11:36.789Z,61.69
2023-04-04T09:13:41.388Z,61.16
2023-04-04T09:15:47.190Z,63.00
2023-04-04T09:17:49.046Z,64.30
2023-04-04T09:19:50.818Z,64.77
2023-04-04T09:21:52.287Z,65.18
2023-04-04T09:24:01.999Z,64.46
2023-04-04T09:26:04.631Z,63.01
2023-04-04T09:28:06.498Z,62.89
2023-04-04T09:30:09.502Z,62.94
2023-04-04T09:32:16.280Z,61.62
2023-04-04T09:34:19.115Z,59.43
2023-04-04T09:36:21.037Z,59.83
2023-04-04T09:38:25.227Z,56.50
2023-04-04T09:40:30.039Z,61.09
2023-04-04T09:42:32.701Z,63.28
2023-04-04T09:44:36.896Z,64.24
2023-04-04T09:46:39.752Z,64.47
2023-04-04T09:48:50.861Z,64.73
2023-04-04T09:50:52.341Z,63.65
2023-04-04T09:52:56.927Z,55.98
2023-04-04T09:55:00.012Z,60.09
2023-04-04T09:57:01.710Z,63.74
2023-04-04T09:59:05.090Z,64.00
2023-04-04T10:01:10.159Z,64.04
2023-04-04T10:03:14.162Z,63.13
2023-04-04T10:05:16.895Z,63.73
2023-04-04T10:07:18.558Z,61.86
2023-04-04T10:09:20.122Z,60.61
2023-04-04T10:11:33.568Z,62.02
2023-04-04T10:13:36.883Z,53.75
2023-04-04T10:15:38.536Z,50.75
2023-04-04T10:17:41.700Z,49.55
2023-04-04T10:19:44.158Z,46.29
2023-04-04T10:21:47.779Z,45.44
2023-04-04T10:23:49.689Z,57.06
2023-04-04T10:25:52.456Z,53.76
2023-04-04T10:27:53.948Z,56.03
2023-04-04T10:29:56.675Z,57.40
2023-04-04T10:32:06.216Z,60.27
2023-04-04T10:34:40.112Z,54.03
2023-04-04T10:36:58.275Z,55.41
2023-04-04T10:39:13.348Z,48.55
2023-04-04T10:41:15.990Z,45.94
2023-04-04T10:43:25.004Z,45.22
2023-04-04T10:45:26.931Z,44.22
2023-04-04T10:47:30.751Z,44.93
2023-04-04T10:49:33.438Z,45.77
2023-04-04T10:51:45.178Z,47.26
2023-04-04T10:53:54.888Z,52.86
2023-04-04T10:55:56.708Z,47.09
2023-04-04T10:57:59.092Z,44.09
2023-04-04T11:00:10.524Z,47.55
2023-04-04T11:02:12.130Z,49.85
2023-04-04T11:04:21.885Z,47.53
2023-04-04T11:06:24.729Z,52.56
2023-04-04T11:08:28.653Z,44.33
2023-04-04T11:10:33.331Z,40.23
2023-04-04T11:12:45.171Z,43.90
2023-04-04T11:15:02.446Z,39.53
2023-04-04T11:17:05.431Z,49.94
2023-04-04T11:19:09.144Z,45.30
2023-04-04T11:21:24.754Z,49.42
2023-04-04T11:23:27.494Z,43.16
2023-04-04T11:25:31.030Z,37.94
2023-04-04T11:27:32.540Z,35.71
2023-04-04T11:29:52.439Z,35.34
2023-04-04T11:31:54.216Z,40.55
2023-04-04T11:34:14.556Z,39.82
2023-04-04T11:36:37.743Z,51.55
2023-04-04T11:38:40.326Z,52.91
2023-04-04T11:40:44.745Z,53.45
2023-04-04T11:42:52.495Z,49.29
2023-04-04T11:44:59.930Z,46.68
2023-04-04T11:47:09.099Z,36.93
2023-04-04T11:49:11.394Z,47.15
2023-04-04T11:51:13.789Z,47.64
2023-04-04T11:53:15.842Z,47.80
2023-04-04T11:55:22.827Z,50.71
2023-04-04T11:57:24.316Z,41.20
2023-04-04T11:59:25.784Z,45.68
2023-04-04T12:01:27.551Z,45.02
2023-04-04T12:03:30.012Z,32.91
2023-04-04T12:05:31.968Z,36.35
2023-04-04T12:07:35.276Z,36.54
2023-04-04T12:09:37.315Z,29.76
2023-04-04T12:11:39.696Z,30.88
2023-04-04T12:13:44.780Z,27.52
2023-04-04T12:15:48.040Z,30.63
2023-04-04T12:17:51.265Z,34.30
2023-04-04T12:19:53.120Z,30.23
2023-04-04T12:21:54.715Z,29.30
2023-04-04T12:23:56.536Z,27.04
2023-04-04T12:25:58.563Z,27.51
2023-04-04T12:28:02.602Z,29.09
2023-04-04T12:30:06.944Z,29.18
2023-04-04T12:32:10.768Z,39.53
2023-04-04T12:34:19.551Z,45.92
2023-04-04T12:36:21.266Z,49.76
2023-04-04T12:38:22.895Z,50.71
2023-04-04T12:40:24.455Z,53.35
2023-04-04T12:42:26.420Z,52.77
2023-04-04T12:44:33.576Z,50.77
2023-04-04T12:46:39.626Z,43.89
2023-04-04T12:48:41.681Z,49.77
2023-04-04T12:50:51.947Z,49.05
2023-04-04T12:53:13.579Z,46.60
2023-04-04T12:55:21.776Z,45.73
2023-04-04T12:57:25.575Z,49.68
2023-04-04T12:59:34.598Z,45.46
2023-04-04T13:01:37.585Z,47.22
2023-04-04T13:03:39.238Z,50.00
2023-04-04T13:05:43.113Z,49.92
2023-04-04T13:07:44.912Z,51.09
2023-04-04T13:09:58.568Z,48.94
2023-04-04T13:12:05.818Z,47.18
2023-04-04T13:14:07.554Z,44.81
2023-04-04T13:16:14.729Z,38.92
2023-04-04T13:18:24.760Z,42.58
2023-04-04T13:20:26.765Z,36.35
2023-04-04T13:22:35.697Z,46.32
2023-04-04T13:24:38.671Z,47.72
2023-04-04T13:26:41.406Z,48.16
2023-04-04T13:28:42.929Z,49.57
2023-04-04T13:30:48.910Z,35.76
2023-04-04T13:32:50.945Z,30.83
2023-04-04T13:34:52.605Z,38.46
2023-04-04T13:36:54.356Z,47.17
2023-04-04T13:38:55.829Z,36.64
2023-04-04T13:40:58.568Z,45.93
2023-04-04T13:43:00.022Z,54.12
2023-04-04T13:45:01.532Z,56.44
2023-04-04T13:47:03.053Z,55.58
2023-04-04T13:49:04.580Z,55.28
2023-04-04T13:51:06.062Z,54.75
2023-04-04T13:53:07.798Z,51.66
2023-04-04T13:55:10.255Z,46.11
2023-04-04T13:57:11.747Z,39.97
2023-04-04T13:59:13.437Z,35.26
2023-04-04T14:01:14.955Z,49.64
2023-04-04T14:03:17.677Z,49.00
2023-04-04T14:05:19.890Z,48.77
2023-04-04T14:07:21.346Z,51.05
2023-04-04T14:09:23.030Z,42.72
2023-04-04T14:11:25.703Z,37.69
2023-04-04T14:13:28.433Z,34.25
2023-04-04T14:15:29.923Z,35.08
2023-04-04T14:17:31.405Z,44.06
2023-04-04T14:19:33.000Z,39.48
2023-04-04T14:21:34.857Z,34.24
2023-04-04T14:23:36.576Z,33.79
2023-04-04T14:25:38.325Z,34.40
2023-04-04T14:27:40.070Z,35.40
2023-04-04T14:29:41.899Z,35.30
2023-04-04T14:31:43.366Z,36.33
2023-04-04T14:33:44.852Z,43.21
2023-04-04T14:35:46.426Z,40.28
2023-04-04T14:37:49.097Z,38.34
2023-04-04T14:39:50.655Z,36.91
2023-04-04T14:41:52.205Z,37.05
2023-04-04T14:43:53.669Z,38.13
2023-04-04T14:45:55.479Z,48.49
2023-04-04T14:47:56.958Z,50.30
2023-04-04T14:49:59.055Z,39.44
2023-04-04T14:52:01.366Z,48.29
2023-04-04T14:54:02.856Z,51.07
2023-04-04T14:56:04.501Z,55.28
2023-04-04T14:58:06.021Z,55.97
2023-04-04T15:00:08.840Z,38.65
2023-04-04T15:02:10.335Z,52.07
2023-04-04T15:04:11.915Z,55.03
2023-04-04T15:06:13.508Z,49.37
2023-04-04T15:08:15.040Z,38.11
2023-04-04T15:10:16.578Z,38.81
2023-04-04T15:12:18.045Z,42.93
2023-04-04T15:14:19.518Z,52.04
2023-04-04T15:16:21.580Z,56.21
2023-04-04T15:18:23.087Z,57.41
2023-04-04T15:20:24.661Z,57.36
2023-04-04T15:22:26.287Z,56.85
2023-04-04T15:24:27.760Z,57.25
2023-04-04T15:26:29.303Z,52.29
2023-04-04T15:28:31.031Z,47.87
2023-04-04T15:30:33.367Z,56.65
2023-04-04T15:32:34.893Z,57.03
2023-04-04T15:34:36.645Z,56.23
2023-04-04T15:36:38.157Z,58.42
2023-04-04T15:38:40.144Z,58.25
2023-04-04T15:40:42.094Z,58.68
2023-04-04T15:42:44.550Z,57.59
2023-04-04T15:44:46.119Z,46.21
2023-04-04T15:46:47.805Z,51.87
2023-04-04T15:48:51.887Z,57.30
2023-04-04T15:51:03.291Z,57.79
2023-04-04T15:53:04.809Z,57.71
2023-04-04T15:55:14.466Z,57.37
2023-04-04T15:57:16.083Z,57.21
2023-04-04T15:59:17.575Z,55.85
2023-04-04T16:01:19.187Z,54.39
2023-04-04T16:03:20.948Z,53.37
2023-04-04T16:05:22.545Z,55.80
2023-04-04T16:07:24.003Z,57.40
2023-04-04T16:09:25.498Z,58.36
2023-04-04T16:11:27.431Z,58.02
2023-04-04T16:13:29.558Z,57.94
2023-04-04T16:15:31.106Z,45.19
2023-04-04T16:17:33.315Z,52.31
2023-04-04T16:19:34.866Z,45.92
2023-04-04T16:21:36.474Z,42.91
2023-04-04T16:23:39.089Z,54.41
2023-04-04T16:25:40.758Z,54.19
2023-04-04T16:27:42.222Z,57.81
2023-04-04T16:29:43.681Z,59.49
2023-04-04T16:31:45.224Z,58.81
2023-04-04T16:33:47.699Z,58.93
2023-04-04T16:35:49.522Z,60.49
2023-04-04T16:37:51.320Z,61.01
2023-04-04T16:39:52.929Z,61.16
2023-04-04T16:41:54.447Z,61.42
2023-04-04T16:43:55.994Z,61.41
2023-04-04T16:45:57.474Z,61.82
2023-04-04T16:47:59.065Z,62.44
2023-04-04T16:50:01.340Z,61.94
2023-04-04T16:52:02.812Z,61.48
2023-04-04T16:54:04.505Z,56.08
2023-04-04T16:56:05.998Z,58.32
2023-04-04T16:58:07.494Z,61.94
2023-04-04T17:00:10.105Z,61.58
2023-04-04T17:02:11.746Z,62.60
2023-04-04T17:04:13.276Z,63.13
2023-04-04T17:06:14.847Z,64.06
2023-04-04T17:08:16.343Z,63.56
2023-04-04T17:10:19.280Z,63.50
2023-04-04T17:12:20.945Z,63.87
2023-04-04T17:14:22.531Z,62.52
2023-04-04T17:16:24.088Z,64.00
2023-04-04T17:18:25.635Z,64.26
2023-04-04T17:20:29.840Z,63.61
2023-04-04T17:22:32.183Z,63.90
2023-04-04T17:24:33.671Z,63.93
2023-04-04T17:26:35.276Z,64.47
2023-04-04T17:28:37.423Z,63.64
2023-04-04T17:30:39.215Z,65.04
2023-04-04T17:32:43.106Z,64.37
2023-04-04T17:34:44.870Z,64.91
2023-04-04T17:36:46.467Z,64.50
2023-04-04T17:38:47.946Z,64.29
2023-04-04T17:40:49.780Z,64.03
2023-04-04T17:42:51.361Z,64.35
2023-04-04T17:44:52.925Z,64.41
2023-04-04T17:46:55.348Z,64.80
2023-04-04T17:48:56.962Z,65.57
2023-04-04T17:50:58.647Z,67.21
2023-04-04T17:53:01.971Z,66.68
2023-04-04T17:55:04.168Z,66.91
2023-04-04T17:57:07.203Z,61.53
2023-04-04T17:59:08.741Z,48.73
2023-04-04T18:01:10.518Z,56.30
2023-04-04T18:03:12.849Z,53.27
2023-04-04T18:05:14.829Z,55.23
2023-04-04T18:07:17.080Z,63.27
2023-04-04T18:09:18.640Z,57.11
2023-04-04T18:11:20.208Z,57.18
2023-04-04T18:13:21.937Z,59.38
2023-04-04T18:15:26.525Z,56.49
2023-04-04T18:17:28.434Z,60.25
2023-04-04T18:19:30.263Z,58.48
2023-04-04T18:21:31.731Z,62.62
2023-04-04T18:23:33.186Z,66.71
2023-04-04T18:25:34.824Z,65.25
2023-04-04T18:27:36.373Z,64.23
2023-04-04T18:29:37.829Z,65.68
2023-04-04T18:31:39.363Z,63.29
2023-04-04T18:33:40.880Z,62.62
2023-04-04T18:35:42.390Z,60.59
2023-04-04T18:37:43.900Z,65.71
2023-04-04T18:39:45.477Z,64.30
2023-04-04T18:41:47.092Z,65.26
2023-04-04T18:43:48.605Z,65.03
2023-04-04T18:45:50.213Z,63.99
2023-04-04T18:47:51.770Z,67.97
2023-04-04T18:49:53.316Z,67.97
2023-04-04T18:51:54.839Z,68.72
2023-04-04T18:53:56.341Z,69.36
2023-04-04T18:55:58.311Z,68.14
2023-04-04T18:57:59.915Z,69.32
2023-04-04T19:00:01.621Z,70.62
2023-04-04T19:02:03.118Z,68.07
2023-04-04T19:04:05.942Z,65.55
2023-04-04T19:06:11.185Z,68.19
2023-04-04T19:08:15.134Z,67.97
2023-04-04T19:10:17.977Z,69.85
2023-04-04T19:12:19.453Z,70.92
2023-04-04T19:14:20.916Z,71.79
2023-04-04T19:16:24.072Z,71.99
2023-04-04T19:18:26.222Z,72.52
2023-04-04T19:20:27.703Z,73.42
2023-04-04T19:22:29.202Z,73.63
2023-04-04T19:24:30.696Z,73.60
2023-04-04T19:26:32.486Z,73.87
2023-04-04T19:28:33.979Z,74.75
2023-04-04T19:30:47.141Z,74.06
2023-04-04T19:32:48.712Z,74.17
2023-04-04T19:34:50.576Z,74.92
2023-04-04T19:36:52.034Z,74.12
2023-04-04T19:38:54.720Z,74.80
2023-04-04T19:40:59.133Z,74.31
2023-04-04T19:43:00.671Z,75.27
2023-04-04T19:45:03.924Z,75.24
2023-04-04T19:47:06.970Z,75.30
2023-04-04T19:49:12.439Z,74.65
2023-04-04T19:51:16.844Z,75.72
2023-04-04T19:53:22.724Z,75.70
2023-04-04T19:55:39.694Z,75.21
2023-04-04T19:57:41.338Z,76.03
2023-04-04T19:59:56.744Z,76.03
2023-04-04T20:02:00.786Z,75.53
2023-04-04T20:04:08.260Z,75.64
2023-04-04T20:06:11.606Z,76.21
2023-04-04T20:08:14.416Z,76.25
2023-04-04T20:10:36.275Z,76.18
2023-04-04T20:12:37.726Z,75.90
2023-04-04T20:14:39.197Z,76.12
2023-04-04T20:16:41.114Z,76.37
2023-04-04T20:18:46.526Z,75.71
2023-04-04T20:20:56.972Z,75.95
2023-04-04T20:22:58.674Z,76.77
2023-04-04T20:25:01.723Z,76.22
2023-04-04T20:27:05.871Z,76.88
2023-04-04T20:29:14.573Z,76.16
2023-04-04T20:31:18.121Z,77.04
2023-04-04T20:33:36.704Z,77.14
2023-04-04T20:35:38.261Z,76.75
2023-04-04T20:37:39.847Z,76.50
2023-04-04T20:39:55.734Z,76.33
2023-04-04T20:41:57.870Z,76.79
2023-04-04T20:43:59.796Z,76.79
2023-04-04T20:46:01.322Z,76.84
2023-04-04T20:48:06.843Z,77.45
2023-04-04T20:50:17.910Z,76.69
2023-04-04T20:52:23.314Z,77.38
2023-04-04T20:54:24.833Z,77.38
2023-04-04T20:56:38.048Z,77.28
2023-04-04T20:58:39.505Z,77.74
2023-04-04T21:00:42.334Z,77.39
2023-04-04T21:02:44.189Z,77.58
2023-04-04T21:04:49.483Z,77.57
2023-04-04T21:06:51.672Z,77.65
2023-04-04T21:08:53.120Z,78.04
2023-04-04T21:10:56.116Z,77.79
2023-04-04T21:13:00.938Z,77.91
2023-04-04T21:15:03.294Z,77.89
2023-04-04T21:17:06.940Z,77.94
2023-04-04T21:19:11.759Z,77.79
2023-04-04T21:21:18.950Z,78.04
2023-04-04T21:23:32.942Z,77.92
2023-04-04T21:25:44.581Z,78.17
2023-04-04T21:27:55.183Z,78.15
2023-04-04T21:29:56.708Z,78.25
2023-04-04T21:31:59.043Z,78.30
2023-04-04T21:34:07.776Z,78.01
2023-04-04T21:36:24.542Z,78.22
2023-04-04T21:38:32.017Z,78.70
2023-04-04T21:40:33.549Z,78.28
2023-04-04T21:42:35.007Z,78.46
2023-04-04T21:44:36.563Z,78.51
2023-04-04T21:46:40.489Z,78.41
2023-04-04T21:48:42.332Z,78.64
2023-04-04T21:50:43.752Z,78.29
2023-04-04T21:52:45.246Z,78.47
2023-04-04T21:54:46.685Z,78.18
2023-04-04T21:56:48.152Z,78.32
2023-04-04T21:58:49.701Z,78.44
2023-04-04T22:00:52.135Z,78.34
2023-04-04T22:02:53.686Z,78.51
2023-04-04T22:04:56.178Z,78.41
2023-04-04T22:06:58.365Z,78.06
2023-04-04T22:09:01.912Z,78.27
2023-04-04T22:11:04.034Z,78.64
2023-04-04T22:13:05.479Z,78.52
2023-04-04T22:15:08.546Z,78.85
2023-04-04T22:17:22.962Z,78.86
2023-04-04T22:19:24.426Z,78.62
2023-04-04T22:21:26.202Z,78.66
2023-04-04T22:23:27.719Z,78.55
2023-04-04T22:25:29.173Z,78.48
2023-04-04T22:27:32.585Z,78.68
2023-04-04T22:29:34.034Z,79.12
2023-04-04T22:31:37.584Z,78.77
2023-04-04T22:33:39.635Z,78.91
2023-04-04T22:35:41.431Z,78.69
2023-04-04T22:37:45.861Z,78.96
2023-04-04T22:39:50.751Z,78.84
2023-04-04T22:41:52.209Z,78.59
2023-04-04T22:43:53.715Z,78.49
2023-04-04T22:45:55.405Z,78.72
2023-04-04T22:47:58.122Z,78.76
2023-04-04T22:50:04.682Z,79.01
2023-04-04T22:52:12.877Z,79.14
2023-04-04T22:54:15.535Z,79.30
2023-04-04T22:56:17.041Z,78.85
2023-04-04T22:58:19.574Z,78.92
2023-04-04T23:00:21.189Z,79.06
2023-04-04T23:02:22.676Z,78.74
2023-04-04T23:04:24.157Z,78.92
2023-04-04T23:06:25.690Z,79.34
2023-04-04T23:08:27.142Z,79.25
2023-04-04T23:10:28.824Z,79.01
2023-04-04T23:12:30.866Z,78.96
2023-04-04T23:14:38.663Z,79.30
2023-04-04T23:16:42.321Z,78.96
2023-04-04T23:18:43.790Z,78.93
2023-04-04T23:20:45.638Z,78.97
2023-04-04T23:22:47.131Z,78.93
2023-04-04T23:24:48.677Z,79.18
2023-04-04T23:26:50.352Z,79.02
2023-04-04T23:28:51.806Z,79.31
2023-04-04T23:30:54.653Z,79.28
2023-04-04T23:32:56.233Z,79.29
2023-04-04T23:34:57.718Z,79.41
2023-04-04T23:36:59.565Z,78.78
2023-04-04T23:39:01.077Z,79.34
2023-04-04T23:41:02.560Z,79.01
2023-04-04T23:43:04.005Z,78.94
2023-04-04T23:45:06.239Z,78.73
2023-04-04T23:47:07.940Z,78.95
2023-04-04T23:49:11.528Z,79.53
2023-04-04T23:51:13.240Z,79.25
2023-04-04T23:53:14.725Z,79.04
2023-04-04T23:55:17.064Z,79.15
2023-04-04T23:57:18.559Z,79.23
2023-04-04T23:59:20.078Z,79.18
